createdAt,value
2023-04-15T00:01:49.993Z,88.03
2023-04-15T00:04:18.493Z,87.87
2023-04-15T00:06:53.469Z,87.57
2023-04-15T00:09:21.648Z,87.68
2023-04-15T00:11:50.689Z,87.32
2023-04-15T00:14:18.595Z,87.52
2023-04-15T00:16:46.633Z,87.35
2023-04-15T00:19:14.649Z,87.12
2023-04-15T00:21:42.582Z,87.44
2023-04-15T00:24:10.601Z,87.25
2023-04-15T00:26:38.634Z,87.55
2023-04-15T00:29:06.737Z,87.93
2023-04-15T00:31:34.644Z,88.04
2023-04-15T00:34:02.670Z,88.25
2023-04-15T00:36:31.857Z,87.76
2023-04-15T00:38:59.957Z,87.77
2023-04-15T00:41:28.128Z,88.07
2023-04-15T00:43:56.050Z,88.12
2023-04-15T00:46:27.127Z,88.45
2023-04-15T00:48:55.420Z,88.14
2023-04-15T00:51:23.604Z,88.29
2023-04-15T00:53:52.155Z,88.01
2023-04-15T00:56:24.480Z,88.13
2023-04-15T00:58:52.586Z,87.74
2023-04-15T01:01:26.317Z,87.61
2023-04-15T01:03:56.671Z,87.72
2023-04-15T01:06:24.899Z,87.87
2023-04-15T01:08:54.274Z,87.66
2023-04-15T01:11:24.317Z,87.64
2023-04-15T01:13:53.043Z,87.32
2023-04-15T01:16:21.406Z,87.22
2023-04-15T01:18:49.522Z,87.57
2023-04-15T01:21:18.318Z,87.63
2023-04-15T01:23:49.183Z,87.55
2023-04-15T01:26:17.732Z,87.38
2023-04-15T01:28:47.099Z,87.45
2023-04-15T01:31:15.605Z,87.56
2023-04-15T01:33:43.959Z,87.18
2023-04-15T01:36:11.847Z,87.14
2023-04-15T01:38:39.973Z,86.94
2023-04-15T01:41:08.736Z,87.07
2023-04-15T01:43:37.425Z,87.02
2023-04-15T01:46:06.401Z,87.11
2023-04-15T01:48:34.675Z,87.07
2023-04-15T01:51:05.137Z,86.76
2023-04-15T01:53:33.696Z,86.70
2023-04-15T01:56:01.618Z,86.79
2023-04-15T01:58:29.575Z,86.79
2023-04-15T02:00:57.693Z,87.02
2023-04-15T02:03:25.871Z,86.92
2023-04-15T02:05:53.954Z,86.55
2023-04-15T02:08:22.693Z,86.47
2023-04-15T02:10:51.007Z,86.61
2023-04-15T02:13:19.164Z,86.41
2023-04-15T02:15:48.885Z,86.46
2023-04-15T02:18:17.175Z,86.25
2023-04-15T02:20:45.616Z,86.47
2023-04-15T02:23:13.762Z,86.35
2023-04-15T02:25:53.907Z,86.32
2023-04-15T02:28:22.470Z,86.13
2023-04-15T02:30:54.566Z,86.06
2023-04-15T02:33:22.626Z,85.88
2023-04-15T02:35:50.957Z,85.88
2023-04-15T02:38:18.907Z,86.28
2023-04-15T02:40:46.845Z,85.97
2023-04-15T02:43:14.779Z,85.97
2023-04-15T02:45:43.879Z,85.73
2023-04-15T02:48:11.943Z,85.89
2023-04-15T02:50:40.837Z,85.93
2023-04-15T02:53:10.596Z,85.62
2023-04-15T02:55:38.539Z,85.57
2023-04-15T02:58:07.692Z,85.77
2023-04-15T03:00:35.657Z,85.94
2023-04-15T03:03:05.339Z,85.85
2023-04-15T03:05:33.665Z,86.24
2023-04-15T03:08:03.262Z,86.33
2023-04-15T03:10:31.736Z,86.40
2023-04-15T03:12:59.711Z,86.47
2023-04-15T03:15:28.068Z,86.39
2023-04-15T03:17:56.647Z,86.29
2023-04-15T03:20:25.110Z,86.30
2023-04-15T03:22:53.330Z,86.27
2023-04-15T03:25:22.029Z,85.63
2023-04-15T03:27:49.891Z,86.12
2023-04-15T03:30:18.918Z,85.79
2023-04-15T03:32:47.113Z,85.88
2023-04-15T03:35:15.131Z,85.82
2023-04-15T03:37:42.973Z,85.62
2023-04-15T03:40:11.643Z,85.55
2023-04-15T03:42:39.493Z,85.33
2023-04-15T03:45:07.906Z,85.46
2023-04-15T03:47:36.022Z,85.58
2023-04-15T03:50:04.440Z,85.69
2023-04-15T03:52:32.319Z,85.77
2023-04-15T03:55:00.331Z,85.87
2023-04-15T03:57:28.258Z,86.06
2023-04-15T03:59:56.350Z,86.17
2023-04-15T04:02:24.496Z,86.24
2023-04-15T04:04:53.303Z,86.55
2023-04-15T04:07:23.811Z,86.53
2023-04-15T04:09:51.725Z,86.69
2023-04-15T04:12:19.697Z,86.83
2023-04-15T04:14:48.435Z,87.28
2023-04-15T04:17:16.282Z,87.77
2023-04-15T04:19:44.194Z,87.77
2023-04-15T04:22:12.267Z,87.72
2023-04-15T04:24:40.409Z,87.75
2023-04-15T04:27:08.500Z,87.41
2023-04-15T04:29:36.402Z,87.57
2023-04-15T04:32:04.354Z,87.43
2023-04-15T04:34:32.683Z,88.02
2023-04-15T04:37:00.848Z,88.49
2023-04-15T04:39:28.780Z,88.31
2023-04-15T04:41:56.639Z,88.15
2023-04-15T04:44:24.448Z,88.08
2023-04-15T04:46:52.474Z,88.17
2023-04-15T04:49:20.525Z,88.51
2023-04-15T04:51:49.024Z,88.69
2023-04-15T04:54:17.732Z,88.61
2023-04-15T04:56:45.661Z,88.62
2023-04-15T04:59:14.102Z,89.13
2023-04-15T05:01:42.172Z,89.29
2023-04-15T05:04:10.194Z,89.39
2023-04-15T05:06:38.320Z,89.56
2023-04-15T05:09:06.375Z,89.77
2023-04-15T05:11:34.353Z,89.68
2023-04-15T05:14:02.473Z,89.57
2023-04-15T05:16:30.447Z,89.50
2023-04-15T05:18:58.385Z,89.53
2023-04-15T05:21:27.787Z,89.90
2023-04-15T05:23:55.758Z,89.81
2023-04-15T05:26:24.941Z,89.62
2023-04-15T05:28:52.860Z,89.61
2023-04-15T05:31:21.256Z,89.19
2023-04-15T05:33:49.265Z,89.19
2023-04-15T05:36:17.483Z,89.07
2023-04-15T05:38:45.463Z,88.87
2023-04-15T05:41:17.098Z,88.21
2023-04-15T05:43:46.583Z,87.97
2023-04-15T05:46:14.497Z,87.20
2023-04-15T05:48:42.489Z,86.89
2023-04-15T05:51:10.596Z,86.71
2023-04-15T05:53:38.939Z,86.60
2023-04-15T05:56:07.170Z,84.80
2023-04-15T05:58:35.061Z,85.03
2023-04-15T06:01:03.620Z,82.92
2023-04-15T06:03:31.899Z,82.38
2023-04-15T06:06:01.026Z,80.95
2023-04-15T06:08:29.067Z,81.46
2023-04-15T06:10:58.747Z,80.77
2023-04-15T06:13:27.291Z,81.10
2023-04-15T06:15:55.574Z,80.27
2023-04-15T06:18:24.512Z,79.40
2023-04-15T06:20:52.512Z,78.92
2023-04-15T06:23:20.496Z,78.25
2023-04-15T06:25:48.664Z,77.25
2023-04-15T06:28:16.700Z,77.79
2023-04-15T06:30:44.709Z,77.07
2023-04-15T06:33:12.757Z,76.54
2023-04-15T06:35:41.168Z,75.20
2023-04-15T06:38:09.040Z,73.28
2023-04-15T06:40:37.017Z,74.74
2023-04-15T06:43:05.038Z,75.39
2023-04-15T06:45:33.357Z,74.83
2023-04-15T06:48:01.377Z,72.35
2023-04-15T06:50:29.377Z,71.60
2023-04-15T06:52:57.446Z,72.13
2023-04-15T06:55:25.312Z,71.93
2023-04-15T06:57:53.415Z,71.35
2023-04-15T07:00:21.450Z,70.61
2023-04-15T07:02:49.482Z,69.80
2023-04-15T07:05:17.459Z,69.72
2023-04-15T07:07:45.457Z,69.47
2023-04-15T07:10:15.060Z,68.95
2023-04-15T07:12:43.013Z,69.28
2023-04-15T07:15:11.280Z,68.99
2023-04-15T07:17:39.347Z,68.90
2023-04-15T07:20:08.136Z,69.47
2023-04-15T07:22:36.074Z,69.66
2023-04-15T07:25:04.446Z,67.95
2023-04-15T07:27:32.790Z,68.71
2023-04-15T07:30:01.098Z,69.68
2023-04-15T07:32:29.058Z,68.86
2023-04-15T07:34:57.069Z,68.36
2023-04-15T07:37:25.146Z,68.04
2023-04-15T07:39:53.836Z,68.86
2023-04-15T07:42:22.306Z,68.57
2023-04-15T07:44:50.235Z,68.65
2023-04-15T07:47:18.166Z,67.03
2023-04-15T07:49:46.580Z,67.59
2023-04-15T07:52:14.493Z,67.89
2023-04-15T07:54:42.556Z,66.86
2023-04-15T07:57:10.697Z,64.85
2023-04-15T07:59:38.637Z,65.79
2023-04-15T08:02:07.046Z,66.47
2023-04-15T08:04:35.319Z,67.63
2023-04-15T08:07:04.982Z,68.10
2023-04-15T08:09:33.029Z,67.86
2023-04-15T08:12:01.076Z,67.52
2023-04-15T08:14:29.495Z,68.03
2023-04-15T08:16:57.431Z,68.03
2023-04-15T08:19:25.386Z,67.60
2023-04-15T08:21:53.339Z,67.49
2023-04-15T08:24:21.663Z,67.49
2023-04-15T08:26:49.569Z,66.80
2023-04-15T08:29:17.503Z,65.46
2023-04-15T08:31:45.771Z,64.76
2023-04-15T08:34:13.719Z,64.01
2023-04-15T08:36:43.356Z,63.54
2023-04-15T08:39:11.414Z,64.28
2023-04-15T08:42:07.307Z,63.49
2023-04-15T08:44:37.068Z,64.16
2023-04-15T08:47:08.751Z,63.23
2023-04-15T08:49:44.214Z,63.08
2023-04-15T08:52:12.418Z,59.97
2023-04-15T08:54:40.511Z,61.84
2023-04-15T08:57:08.784Z,60.16
2023-04-15T08:59:36.713Z,58.07
2023-04-15T09:02:04.788Z,56.80
2023-04-15T09:04:33.957Z,57.25
2023-04-15T09:07:02.285Z,59.19
2023-04-15T09:09:30.260Z,59.97
2023-04-15T09:11:58.242Z,60.45
2023-04-15T09:14:26.164Z,59.30
2023-04-15T09:17:02.566Z,57.87
2023-04-15T09:19:31.648Z,57.44
2023-04-15T09:22:00.363Z,57.69
2023-04-15T09:24:39.458Z,59.04
2023-04-15T09:27:07.481Z,59.17
2023-04-15T09:29:35.446Z,59.34
2023-04-15T09:32:11.465Z,57.97
2023-04-15T09:34:39.358Z,56.58
2023-04-15T09:37:08.172Z,56.83
2023-04-15T09:39:47.454Z,58.32
2023-04-15T09:42:17.168Z,59.13
2023-04-15T09:44:45.553Z,58.83
2023-04-15T09:47:31.627Z,57.82
2023-04-15T09:50:01.966Z,56.74
2023-04-15T09:52:30.775Z,57.89
2023-04-15T09:54:59.947Z,56.83
2023-04-15T09:57:36.733Z,57.01
2023-04-15T10:00:08.294Z,57.45
2023-04-15T10:02:40.157Z,57.80
2023-04-15T10:05:12.293Z,58.39
2023-04-15T10:07:43.547Z,57.37
2023-04-15T10:10:11.783Z,57.97
2023-04-15T10:12:41.759Z,56.76
2023-04-15T10:15:21.838Z,56.73
2023-04-15T10:17:51.221Z,56.53
2023-04-15T10:20:19.830Z,56.89
2023-04-15T10:22:48.867Z,56.18
2023-04-15T10:25:16.992Z,56.32
2023-04-15T10:27:45.606Z,56.35
2023-04-15T10:30:13.826Z,56.19
2023-04-15T10:32:42.755Z,55.56
2023-04-15T10:35:12.090Z,55.81
2023-04-15T10:37:40.121Z,55.36
2023-04-15T10:40:31.734Z,54.87
2023-04-15T10:43:02.199Z,53.41
2023-04-15T10:45:35.647Z,52.67
2023-04-15T10:48:07.459Z,51.68
2023-04-15T10:50:37.803Z,52.22
2023-04-15T10:53:05.927Z,51.13
2023-04-15T10:55:35.402Z,52.28
2023-04-15T10:58:03.411Z,53.07
2023-04-15T11:00:33.188Z,53.60
2023-04-15T11:03:10.342Z,52.62
2023-04-15T11:05:41.629Z,52.77
2023-04-15T11:09:12.050Z,52.19
2023-04-15T11:12:07.236Z,51.83
2023-04-15T11:14:41.644Z,51.43
2023-04-15T11:17:09.741Z,50.98
2023-04-15T11:40:28.793Z,47.51
2023-04-15T11:43:12.566Z,47.60
2023-04-15T11:45:59.021Z,47.80
2023-04-15T11:48:27.775Z,47.53
2023-04-15T11:50:56.309Z,46.35
2023-04-15T11:53:24.012Z,46.90
2023-04-15T11:55:52.699Z,46.89
2023-04-15T11:58:24.666Z,45.90
2023-04-15T12:00:52.686Z,45.08
2023-04-15T12:03:19.776Z,44.56
2023-04-15T12:06:05.696Z,45.01
2023-04-15T12:08:50.877Z,45.11
2023-04-15T12:11:18.283Z,45.19
2023-04-15T12:13:49.268Z,45.07
2023-04-15T12:16:19.394Z,45.14
2023-04-15T12:18:47.696Z,44.75
2023-04-15T12:21:14.999Z,44.86
2023-04-15T12:23:52.682Z,44.15
2023-04-15T12:26:30.739Z,44.51
2023-04-15T12:29:07.055Z,43.91
2023-04-15T12:31:35.517Z,43.71
2023-04-15T12:34:03.613Z,43.22
2023-04-15T12:36:35.693Z,43.30
2023-04-15T12:39:06.315Z,42.30
2023-04-15T12:41:33.056Z,42.37
2023-04-15T12:43:59.981Z,42.17
2023-04-15T12:46:27.237Z,41.42
2023-04-15T12:48:53.961Z,40.97
2023-04-15T12:51:23.389Z,41.08
2023-04-15T12:53:50.392Z,42.29
2023-04-15T12:56:17.558Z,42.17
2023-04-15T12:58:44.159Z,41.68
2023-04-15T13:01:11.132Z,40.57
2023-04-15T13:03:37.840Z,40.79
2023-04-15T13:06:05.454Z,41.35
2023-04-15T13:08:32.539Z,41.82
2023-04-15T13:10:59.463Z,41.43
2023-04-15T13:13:26.789Z,41.04
2023-04-15T13:15:53.353Z,39.00
2023-04-15T13:18:20.035Z,38.84
2023-04-15T13:20:46.572Z,39.16
2023-04-15T13:23:13.211Z,38.40
2023-04-15T13:25:40.514Z,38.39
2023-04-15T13:28:07.070Z,39.04
2023-04-15T13:30:33.667Z,38.68
2023-04-15T13:33:00.201Z,38.42
2023-04-15T13:35:26.742Z,38.44
2023-04-15T13:37:54.368Z,38.46
2023-04-15T13:40:21.120Z,39.02
2023-04-15T13:42:48.066Z,39.30
2023-04-15T13:45:15.624Z,39.27
2023-04-15T14:05:12.634Z,40.68
2023-04-15T14:24:09.821Z,39.99
2023-04-15T14:26:37.760Z,39.95
2023-04-15T14:29:05.951Z,39.74
2023-04-15T14:36:00.131Z,39.51
2023-04-15T14:38:28.224Z,39.00
2023-04-15T14:40:56.246Z,39.27
2023-04-15T14:43:24.280Z,39.07
2023-04-15T14:45:52.308Z,38.99
2023-04-15T14:48:20.511Z,39.69
2023-04-15T17:12:16.313Z,59.26
2023-04-15T17:14:44.507Z,60.03
2023-04-15T17:35:23.615Z,61.52
2023-04-15T17:37:51.703Z,60.88
2023-04-15T17:40:21.441Z,61.35
2023-04-15T17:42:49.532Z,61.68
2023-04-15T17:45:17.654Z,66.13
2023-04-15T17:47:46.182Z,66.55
2023-04-15T17:50:15.065Z,65.08
2023-04-15T17:52:44.192Z,64.16
2023-04-15T17:55:12.668Z,65.42
2023-04-15T17:57:41.040Z,65.75
2023-04-15T18:00:10.808Z,67.46
2023-04-15T18:02:41.907Z,70.49
2023-04-15T18:05:10.600Z,71.14
2023-04-15T18:07:38.710Z,68.69
2023-04-15T18:10:08.349Z,67.28
2023-04-15T18:12:39.013Z,70.27
2023-04-15T18:15:10.471Z,73.77
2023-04-15T18:17:38.531Z,73.08
2023-04-15T18:20:07.444Z,77.22
2023-04-15T18:22:35.719Z,78.38
2023-04-15T18:25:04.704Z,78.27
2023-04-15T18:27:34.623Z,77.78
2023-04-15T18:30:02.630Z,76.65
2023-04-15T18:32:32.947Z,74.94
2023-04-15T18:35:02.137Z,73.97
2023-04-15T18:37:30.307Z,73.39
2023-04-15T18:39:59.025Z,73.30
2023-04-15T18:42:27.418Z,72.97
2023-04-15T18:44:55.478Z,72.97
2023-04-15T18:47:27.016Z,72.73
2023-04-15T18:49:55.664Z,73.03
2023-04-15T18:52:23.631Z,74.98
2023-04-15T18:54:52.022Z,73.71
2023-04-15T18:57:24.984Z,73.87
2023-04-15T19:00:00.045Z,73.66
2023-04-15T19:02:28.463Z,73.63
2023-04-15T19:04:57.345Z,73.64
2023-04-15T19:07:25.455Z,73.61
2023-04-15T19:09:53.688Z,74.06
2023-04-15T19:12:21.624Z,75.08
2023-04-15T19:14:49.942Z,74.52
2023-04-15T19:17:17.921Z,74.70
2023-04-15T19:19:46.174Z,74.40
2023-04-15T19:22:14.417Z,74.66
2023-04-15T19:24:43.305Z,74.74
2023-04-15T19:27:11.324Z,74.98
2023-04-15T19:29:39.571Z,75.64
2023-04-15T19:32:07.665Z,75.86
2023-04-15T19:34:36.001Z,75.77
2023-04-15T19:37:03.971Z,75.48
2023-04-15T19:39:32.164Z,75.77
2023-04-15T19:42:00.393Z,77.62
2023-04-15T19:44:28.608Z,80.31
2023-04-15T19:46:56.937Z,80.83
2023-04-15T19:49:26.754Z,80.63
2023-04-15T19:51:54.658Z,82.24
2023-04-15T19:54:22.896Z,80.85
2023-04-15T19:56:50.893Z,80.11
2023-04-15T19:59:18.913Z,79.48
2023-04-15T20:01:47.018Z,79.40
2023-04-15T20:04:15.141Z,79.37
2023-04-15T20:06:43.128Z,79.39
2023-04-15T20:09:11.619Z,79.44
2023-04-15T20:12:09.986Z,79.67
2023-04-15T20:14:27.807Z,80.31
2023-04-15T20:16:55.703Z,81.60
2023-04-15T20:19:23.647Z,82.41
2023-04-15T20:21:52.699Z,81.37
2023-04-15T20:24:21.660Z,81.17
2023-04-15T20:26:49.775Z,80.72
2023-04-15T20:29:18.204Z,80.72
2023-04-15T20:31:46.456Z,80.79
2023-04-15T20:34:14.926Z,80.86
2023-04-15T20:36:42.915Z,81.07
2023-04-15T20:39:10.885Z,82.18
2023-04-15T20:41:38.817Z,82.72
2023-04-15T20:44:06.725Z,82.21
2023-04-15T20:46:34.706Z,81.45
2023-04-15T20:49:02.794Z,81.43
2023-04-15T20:51:37.360Z,81.39
2023-04-15T20:54:06.231Z,81.44
2023-04-15T20:56:34.088Z,81.22
2023-04-15T20:59:02.563Z,81.94
2023-04-15T21:01:30.648Z,83.04
2023-04-15T21:03:59.539Z,83.92
2023-04-15T21:06:27.984Z,84.31
2023-04-15T21:08:55.951Z,84.20
2023-04-15T21:11:43.160Z,84.02
2023-04-15T21:14:12.516Z,83.63
2023-04-15T21:16:41.211Z,84.98
2023-04-15T21:19:09.832Z,84.62
2023-04-15T21:21:39.769Z,82.86
2023-04-15T21:24:10.381Z,82.20
2023-04-15T21:26:38.553Z,82.16
2023-04-15T21:29:08.692Z,82.07
2023-04-15T21:31:38.764Z,83.04
2023-04-15T21:34:06.804Z,84.01
2023-04-15T21:36:35.312Z,83.18
2023-04-15T21:39:03.468Z,83.51
2023-04-15T21:41:32.800Z,83.55
2023-04-15T21:44:00.976Z,83.47
2023-04-15T21:46:32.837Z,83.29
2023-04-15T21:49:03.786Z,83.21
2023-04-15T21:51:32.801Z,83.33
2023-04-15T21:54:00.788Z,83.29
2023-04-15T21:56:28.770Z,83.74
2023-04-15T21:58:57.661Z,84.68
2023-04-15T22:01:26.677Z,84.35
2023-04-15T22:03:55.030Z,85.07
2023-04-15T22:06:23.212Z,85.53
2023-04-15T22:09:10.651Z,85.81
2023-04-15T22:11:39.408Z,85.50
2023-04-15T22:14:07.428Z,85.16
2023-04-15T22:16:35.361Z,85.33
2023-04-15T22:19:03.494Z,85.34
2023-04-15T22:21:31.979Z,85.23
2023-04-15T22:24:36.706Z,85.57
2023-04-15T22:26:47.849Z,86.28
2023-04-15T22:29:15.833Z,86.35
2023-04-15T22:31:43.883Z,86.10
2023-04-15T22:34:11.987Z,86.16
2023-04-15T22:36:39.876Z,86.26
2023-04-15T22:39:07.939Z,85.91
2023-04-15T22:41:36.510Z,86.25
2023-04-15T22:44:04.456Z,86.26
2023-04-15T22:46:32.422Z,86.27
2023-04-15T22:49:01.009Z,86.77
2023-04-15T22:51:29.290Z,86.89
2023-04-15T22:53:57.369Z,86.51
2023-04-15T22:56:25.554Z,87.58
2023-04-15T22:58:53.514Z,87.85
2023-04-15T23:01:21.466Z,87.86
2023-04-15T23:03:57.339Z,87.53
2023-04-15T23:06:30.348Z,87.43
2023-04-15T23:08:58.272Z,89.18
2023-04-15T23:11:26.158Z,89.52
2023-04-15T23:13:54.127Z,89.44
2023-04-15T23:16:22.455Z,88.84
2023-04-15T23:18:50.488Z,88.86
2023-04-15T23:21:18.352Z,88.50
2023-04-15T23:23:46.258Z,88.86
2023-04-15T23:26:14.277Z,88.88
2023-04-15T23:28:42.176Z,89.21
2023-04-15T23:31:11.343Z,90.12
2023-04-15T23:33:39.278Z,90.87
2023-04-15T23:36:07.578Z,90.86
2023-04-15T23:38:35.707Z,90.02
2023-04-15T23:41:03.649Z,89.95
2023-04-15T23:43:31.725Z,90.02
2023-04-15T23:45:59.599Z,90.09
2023-04-15T23:48:27.474Z,89.95
2023-04-15T23:50:55.408Z,89.29
2023-04-15T23:53:23.347Z,89.33
2023-04-15T23:55:51.413Z,89.22
2023-04-15T23:58:19.296Z,89.39
